Time,TemperatureF,DewpointF,PressureIn,WindDirection,WindDirectionDegrees,WindSpeedMPH,WindSpeedGustMPH,Humidity,HourlyPrecipIn,Conditions,Clouds,dailyrainin,SoftwareType,DateUTC
2013-01-23 00:00:00,-3.0,-6.0,30.16,NE,45,3.0,7.0,87,0.00,,,0.00,Rainwise IP-100,2013-01-23 05:00:00,
2013-01-23 00:02:00,-3.0,-6.0,30.16,NE,45,9.0,9.0,87,0.00,,,0.00,Rainwise IP-100,2013-01-23 05:02:00,
2013-01-23 00:03:00,-3.0,-6.0,30.16,ENE,67,9.0,11.0,86,0.00,,,0.00,Rainwise IP-100,2013-01-23 05:03:00,
2013-01-23 00:08:00,-3.0,-6.0,30.16,NE,45,5.0,10.0,87,0.00,,,0.00,Rainwise IP-100,2013-01-23 05:08:00,
2013-01-23 00:13:00,-3.0,-6.0,30.16,ENE,67,9.0,13.0,85,0.00,,,0.00,Rainwise IP-100,2013-01-23 05:13:00,
2013-01-23 00:18:00,-3.0,-6.0,30.16,NNE,22,4.0,10.0,87,0.00,,,0.00,Rainwise IP-100,2013-01-23 05:18:00,
2013-01-23 00:23:00,-3.0,-6.0,30.16,NE,45,3.0,10.0,86,0.00,,,0.00,Rainwise IP-100,2013-01-23 05:23:00,
2013-01-23 00:27:00,-3.0,-6.0,30.15,North,360,5.0,8.0,87,0.00,,,0.00,Rainwise IP-100,2013-01-23 05:27:00,
2013-01-23 00:32:00,-3.0,-6.0,30.15,North,360,7.0,13.0,86,0.00,,,0.00,Rainwise IP-100,2013-01-23 05:32:00,
2013-01-23 00:37:00,-3.0,0.0,30.16,North,360,7.0,10.0,88,0.00,,,0.00,Rainwise IP-100,2013-01-23 05:37:00,
2013-01-23 00:42:00,-3.0,-6.0,30.16,NNW,337,4.0,8.0,86,0.00,,,0.00,Rainwise IP-100,2013-01-23 05:42:00,
2013-01-23 00:47:00,-3.0,0.0,30.16,NNE,22,6.0,7.0,88,0.00,,,0.00,Rainwise IP-100,2013-01-23 05:47:00,
2013-01-23 00:52:00,-3.0,-6.0,30.16,NNE,22,6.0,7.0,87,0.00,,,0.00,Rainwise IP-100,2013-01-23 05:52:00,
2013-01-23 00:57:00,-4.0,-6.0,30.16,NE,45,4.0,9.0,87,0.00,,,0.00,Rainwise IP-100,2013-01-23 05:57:00,
2013-01-23 01:02:00,-4.0,-6.0,30.16,NE,45,7.0,7.0,87,0.00,,,0.00,Rainwise IP-100,2013-01-23 06:02:00,
2013-01-23 01:07:00,-4.0,-6.0,30.16,NE,45,6.0,10.0,86,0.00,,,0.00,Rainwise IP-100,2013-01-23 06:07:00,
2013-01-23 01:12:00,-4.0,0.0,30.16,NE,45,4.0,9.0,88,0.00,,,0.00,Rainwise IP-100,2013-01-23 06:12:00,
2013-01-23 01:17:00,-4.0,-6.0,30.16,NNE,22,7.0,9.0,87,0.00,,,0.00,Rainwise IP-100,2013-01-23 06:17:00,
2013-01-23 01:22:00,-4.0,0.0,30.16,NE,45,4.0,10.0,89,0.00,,,0.00,Rainwise IP-100,2013-01-23 06:22:00,
2013-01-23 01:27:00,-4.0,0.0,30.16,ENE,67,7.0,11.0,88,0.00,,,0.00,Rainwise IP-100,2013-01-23 06:27:00,
2013-01-23 01:32:00,-4.0,0.0,30.16,NE,45,6.0,10.0,90,0.00,,,0.00,Rainwise IP-100,2013-01-23 06:32:00,
2013-01-23 01:37:00,-4.0,0.0,30.16,NNE,22,6.0,9.0,90,0.00,,,0.00,Rainwise IP-100,2013-01-23 06:37:00,
2013-01-23 01:42:00,-4.0,0.0,30.17,NNW,337,6.0,9.0,89,0.00,,,0.00,Rainwise IP-100,2013-01-23 06:42:00,
2013-01-23 01:47:00,-4.0,0.0,30.17,NNE,22,6.0,10.0,88,0.00,,,0.00,Rainwise IP-100,2013-01-23 06:47:00,
2013-01-23 01:52:00,-5.0,-6.0,30.18,NNE,22,6.0,12.0,85,0.00,,,0.00,Rainwise IP-100,2013-01-23 06:52:00,
2013-01-23 01:57:00,-5.0,0.0,30.18,ENE,67,7.0,10.0,88,0.00,,,0.00,Rainwise IP-100,2013-01-23 06:57:00,
2013-01-23 02:02:00,-5.0,-6.0,30.18,North,360,3.0,12.0,85,0.00,,,0.00,Rainwise IP-100,2013-01-23 07:02:00,
2013-01-23 02:07:00,-5.0,-6.0,30.18,NNE,22,6.0,9.0,86,0.00,,,0.00,Rainwise IP-100,2013-01-23 07:07:00,
2013-01-23 02:12:00,-5.0,-6.0,30.18,NNE,22,5.0,15.0,83,0.00,,,0.00,Rainwise IP-100,2013-01-23 07:12:00,
2013-01-23 02:17:00,-5.0,-6.0,30.18,NNE,22,9.0,15.0,81,0.00,,,0.00,Rainwise IP-100,2013-01-23 07:17:00,
2013-01-23 02:22:00,-6.0,-13.0,30.18,NE,45,8.0,14.0,80,0.00,,,0.00,Rainwise IP-100,2013-01-23 07:22:00,
2013-01-23 02:27:00,-6.0,-13.0,30.18,North,360,7.0,12.0,79,0.00,,,0.00,Rainwise IP-100,2013-01-23 07:27:00,
2013-01-23 02:32:00,-6.0,-13.0,30.18,NW,315,13.0,14.0,79,0.00,,,0.00,Rainwise IP-100,2013-01-23 07:32:00,
2013-01-23 02:37:00,-6.0,-13.0,30.18,North,360,9.0,18.0,79,0.00,,,0.00,Rainwise IP-100,2013-01-23 07:37:00,
2013-01-23 02:42:00,-6.0,-13.0,30.19,North,360,8.0,15.0,79,0.00,,,0.00,Rainwise IP-100,2013-01-23 07:42:00,
2013-01-23 02:47:00,-7.0,-13.0,30.19,NNE,22,6.0,12.0,79,0.00,,,0.00,Rainwise IP-100,2013-01-23 07:47:00,
2013-01-23 02:52:00,-7.0,-13.0,30.19,North,360,6.0,14.0,79,0.00,,,0.00,Rainwise IP-100,2013-01-23 07:52:00,
2013-01-23 02:57:00,-7.0,-13.0,30.19,North,360,9.0,13.0,79,0.00,,,0.00,Rainwise IP-100,2013-01-23 07:57:00,
2013-01-23 03:02:00,-7.0,-13.0,30.19,North,360,8.0,11.0,81,0.00,,,0.00,Rainwise IP-100,2013-01-23 08:02:00,
2013-01-23 03:07:00,-7.0,-13.0,30.19,North,360,9.0,10.0,81,0.00,,,0.00,Rainwise IP-100,2013-01-23 08:07:00,
2013-01-23 03:12:00,-7.0,-13.0,30.19,North,360,8.0,11.0,81,0.00,,,0.00,Rainwise IP-100,2013-01-23 08:12:00,
2013-01-23 03:17:00,-8.0,-13.0,30.19,NNW,337,7.0,15.0,81,0.00,,,0.00,Rainwise IP-100,2013-01-23 08:17:00,
2013-01-23 03:22:00,-8.0,-13.0,30.19,NNE,22,7.0,13.0,82,0.00,,,0.00,Rainwise IP-100,2013-01-23 08:22:00,
2013-01-23 03:27:00,-8.0,-13.0,30.19,NNE,22,6.0,10.0,83,0.00,,,0.00,Rainwise IP-100,2013-01-23 08:27:00,
2013-01-23 03:32:00,-8.0,-13.0,30.19,NW,315,10.0,14.0,81,0.00,,,0.00,Rainwise IP-100,2013-01-23 08:32:00,
2013-01-23 03:37:00,-8.0,-13.0,30.19,NNE,22,6.0,11.0,80,0.00,,,0.00,Rainwise IP-100,2013-01-23 08:37:00,
2013-01-23 03:42:00,-8.0,-13.0,30.19,North,360,5.0,9.0,82,0.00,,,0.00,Rainwise IP-100,2013-01-23 08:42:00,
2013-01-23 03:47:00,-8.0,-6.0,30.19,North,360,1.0,9.0,85,0.00,,,0.00,Rainwise IP-100,2013-01-23 08:47:00,
2013-01-23 03:52:00,-8.0,-13.0,30.19,NNE,22,8.0,13.0,82,0.00,,,0.00,Rainwise IP-100,2013-01-23 08:52:00,
2013-01-23 03:58:00,-8.0,-13.0,30.19,NNE,22,3.0,8.0,82,0.00,,,0.00,Rainwise IP-100,2013-01-23 08:58:00,
2013-01-23 04:03:00,-9.0,-13.0,30.19,North,360,7.0,9.0,81,0.00,,,0.00,Rainwise IP-100,2013-01-23 09:03:00,
2013-01-23 04:08:00,-9.0,-13.0,30.19,NNW,337,6.0,9.0,81,0.00,,,0.00,Rainwise IP-100,2013-01-23 09:08:00,
2013-01-23 04:13:00,-9.0,-13.0,30.20,NNW,337,12.0,12.0,80,0.00,,,0.00,Rainwise IP-100,2013-01-23 09:13:00,
2013-01-23 04:18:00,-9.0,-13.0,30.20,NW,315,4.0,13.0,79,0.00,,,0.00,Rainwise IP-100,2013-01-23 09:18:00,
2013-01-23 04:23:00,-9.0,-13.0,30.19,North,360,7.0,7.0,80,0.00,,,0.00,Rainwise IP-100,2013-01-23 09:23:00,
2013-01-23 04:28:00,-9.0,-13.0,30.19,North,360,7.0,13.0,79,0.00,,,0.00,Rainwise IP-100,2013-01-23 09:28:00,
2013-01-23 04:33:00,-9.0,-13.0,30.19,NNE,22,4.0,12.0,79,0.00,,,0.00,Rainwise IP-100,2013-01-23 09:33:00,
2013-01-23 04:38:00,-9.0,-13.0,30.19,NE,45,3.0,7.0,80,0.00,,,0.00,Rainwise IP-100,2013-01-23 09:38:00,
2013-01-23 04:43:00,-9.0,-13.0,30.19,NNE,22,6.0,11.0,79,0.00,,,0.00,Rainwise IP-100,2013-01-23 09:43:00,
2013-01-23 04:48:00,-9.0,-13.0,30.19,North,360,6.0,11.0,78,0.00,,,0.00,Rainwise IP-100,2013-01-23 09:48:00,
2013-01-23 04:53:00,-9.0,-13.0,30.19,North,360,7.0,11.0,78,0.00,,,0.00,Rainwise IP-100,2013-01-23 09:53:00,
2013-01-23 04:58:00,-9.0,-13.0,30.19,NNW,337,9.0,11.0,78,0.00,,,0.00,Rainwise IP-100,2013-01-23 09:58:00,
2013-01-23 05:03:00,-10.0,-13.0,30.21,NNE,22,8.0,12.0,77,0.00,,,0.00,Rainwise IP-100,2013-01-23 10:03:00,
2013-01-23 05:08:00,-10.0,-13.0,30.21,NNW,337,6.0,13.0,76,0.00,,,0.00,Rainwise IP-100,2013-01-23 10:08:00,
2013-01-23 05:14:00,-10.0,-13.0,30.21,NNW,337,6.0,12.0,77,0.00,,,0.00,Rainwise IP-100,2013-01-23 10:14:00,
2013-01-23 05:19:00,-10.0,-13.0,30.21,NNW,337,5.0,9.0,78,0.00,,,0.00,Rainwise IP-100,2013-01-23 10:19:00,
2013-01-23 05:24:00,-10.0,-13.0,30.21,NE,45,6.0,8.0,77,0.00,,,0.00,Rainwise IP-100,2013-01-23 10:24:00,
2013-01-23 05:29:00,-10.0,-13.0,30.21,NNE,22,7.0,8.0,79,0.00,,,0.00,Rainwise IP-100,2013-01-23 10:29:00,
2013-01-23 05:34:00,-10.0,-13.0,30.21,NE,45,4.0,12.0,79,0.00,,,0.00,Rainwise IP-100,2013-01-23 10:34:00,
2013-01-23 05:39:00,-10.0,-13.0,30.21,North,360,6.0,12.0,79,0.00,,,0.00,Rainwise IP-100,2013-01-23 10:39:00,
2013-01-23 05:44:00,-10.0,-13.0,30.21,East,90,5.0,6.0,81,0.00,,,0.00,Rainwise IP-100,2013-01-23 10:44:00,
2013-01-23 05:49:00,-10.0,-13.0,30.21,ENE,67,6.0,8.0,81,0.00,,,0.00,Rainwise IP-100,2013-01-23 10:49:00,
2013-01-23 05:54:00,-10.0,-13.0,30.21,ENE,67,7.0,8.0,80,0.00,,,0.00,Rainwise IP-100,2013-01-23 10:54:00,
2013-01-23 05:59:00,-10.0,-13.0,30.21,NE,45,6.0,8.0,80,0.00,,,0.00,Rainwise IP-100,2013-01-23 10:59:00,
2013-01-23 06:04:00,-10.0,-13.0,30.21,ENE,67,7.0,9.0,79,0.00,,,0.00,Rainwise IP-100,2013-01-23 11:04:00,
2013-01-23 06:09:00,-10.0,-13.0,30.21,NE,45,6.0,7.0,79,0.00,,,0.00,Rainwise IP-100,2013-01-23 11:09:00,
2013-01-23 06:14:00,-11.0,-13.0,30.22,East,90,6.0,8.0,77,0.00,,,0.00,Rainwise IP-100,2013-01-23 11:14:00,
2013-01-23 06:19:00,-11.0,-13.0,30.22,ENE,67,2.0,8.0,77,0.00,,,0.00,Rainwise IP-100,2013-01-23 11:19:00,
2013-01-23 06:24:00,-11.0,-13.0,30.22,NNE,22,6.0,8.0,76,0.00,,,0.00,Rainwise IP-100,2013-01-23 11:24:00,
2013-01-23 06:29:00,-11.0,-13.0,30.22,ENE,67,2.0,7.0,76,0.00,,,0.00,Rainwise IP-100,2013-01-23 11:29:00,
2013-01-23 06:34:00,-11.0,-13.0,30.23,NW,315,3.0,9.0,75,0.00,,,0.00,Rainwise IP-100,2013-01-23 11:34:00,
2013-01-23 06:39:00,-11.0,-13.0,30.23,NE,45,2.0,6.0,75,0.00,,,0.00,Rainwise IP-100,2013-01-23 11:39:00,
2013-01-23 06:44:00,-11.0,-13.0,30.23,North,360,6.0,7.0,75,0.00,,,0.00,Rainwise IP-100,2013-01-23 11:44:00,
2013-01-23 06:49:00,-11.0,-13.0,30.23,East,90,6.0,15.0,74,0.00,,,0.00,Rainwise IP-100,2013-01-23 11:49:00,
2013-01-23 06:54:00,-11.0,-13.0,30.23,SSE,157,5.0,9.0,74,0.00,,,0.00,Rainwise IP-100,2013-01-23 11:54:00,
2013-01-23 06:59:00,-11.0,-13.0,30.23,ENE,67,5.0,7.0,74,0.00,,,0.00,Rainwise IP-100,2013-01-23 11:59:00,
2013-01-23 07:04:00,-12.0,-13.0,30.23,NE,45,4.0,8.0,76,0.00,,,0.00,Rainwise IP-100,2013-01-23 12:04:00,
2013-01-23 07:09:00,-12.0,-13.0,30.23,ENE,67,6.0,9.0,75,0.00,,,0.00,Rainwise IP-100,2013-01-23 12:09:00,
2013-01-23 07:14:00,-12.0,-13.0,30.23,NE,45,4.0,8.0,76,0.00,,,0.00,Rainwise IP-100,2013-01-23 12:14:00,
2013-01-23 07:19:00,-12.0,-13.0,30.23,NNE,22,7.0,7.0,76,0.00,,,0.00,Rainwise IP-100,2013-01-23 12:19:00,
2013-01-23 07:24:00,-12.0,-13.0,30.23,North,360,6.0,9.0,76,0.00,,,0.00,Rainwise IP-100,2013-01-23 12:24:00,
2013-01-23 07:29:00,-13.0,-13.0,30.23,NE,45,6.0,8.0,76,0.00,,,0.00,Rainwise IP-100,2013-01-23 12:29:00,
2013-01-23 07:34:00,-12.0,-13.0,30.24,NNW,337,7.0,9.0,74,0.00,,,0.00,Rainwise IP-100,2013-01-23 12:34:00,
2013-01-23 07:39:00,-12.0,-13.0,30.24,NE,45,7.0,9.0,74,0.00,,,0.00,Rainwise IP-100,2013-01-23 12:39:00,
2013-01-23 07:44:00,-12.0,-13.0,30.24,NNE,22,7.0,11.0,73,0.00,,,0.00,Rainwise IP-100,2013-01-23 12:44:00,
2013-01-23 07:49:00,-13.0,-13.0,30.24,ENE,67,9.0,10.0,75,0.00,,,0.00,Rainwise IP-100,2013-01-23 12:49:00,
2013-01-23 07:54:00,-12.0,-13.0,30.24,NNE,22,9.0,11.0,74,0.00,,,0.00,Rainwise IP-100,2013-01-23 12:54:00,
2013-01-23 07:59:00,-13.0,-13.0,30.24,NE,45,5.0,10.0,75,0.00,,,0.00,Rainwise IP-100,2013-01-23 12:59:00,
2013-01-23 08:04:00,-13.0,-13.0,30.25,NNE,22,6.0,10.0,75,0.00,,,0.00,Rainwise IP-100,2013-01-23 13:04:00,
2013-01-23 08:09:00,-12.0,-13.0,30.25,NE,45,7.0,10.0,74,0.00,,,0.00,Rainwise IP-100,2013-01-23 13:09:00,
2013-01-23 08:14:00,-12.0,-13.0,30.25,NNE,22,6.0,8.0,72,0.00,,,0.00,Rainwise IP-100,2013-01-23 13:14:00,
2013-01-23 08:19:00,-11.0,-13.0,30.25,NNW,337,9.0,10.0,71,0.00,,,0.00,Rainwise IP-100,2013-01-23 13:19:00,
2013-01-23 08:24:00,-11.0,-13.0,30.25,ENE,67,6.0,10.0,70,0.00,,,0.00,Rainwise IP-100,2013-01-23 13:24:00,
2013-01-23 08:29:00,-11.0,-13.0,30.25,East,90,3.0,7.0,69,0.00,,,0.00,Rainwise IP-100,2013-01-23 13:29:00,
2013-01-23 08:34:00,-11.0,-13.0,30.25,North,360,5.0,12.0,68,0.00,,,0.00,Rainwise IP-100,2013-01-23 13:34:00,
2013-01-23 08:39:00,-10.0,-13.0,30.25,NE,45,6.0,9.0,67,0.00,,,0.00,Rainwise IP-100,2013-01-23 13:39:00,
2013-01-23 08:44:00,-10.0,-13.0,30.26,North,360,9.0,10.0,65,0.00,,,0.00,Rainwise IP-100,2013-01-23 13:44:00,
2013-01-23 08:49:00,-10.0,-13.0,30.26,West,270,6.0,16.0,62,0.00,,,0.00,Rainwise IP-100,2013-01-23 13:49:00,
2013-01-23 08:54:00,-10.0,-13.0,30.25,North,360,5.0,13.0,61,0.00,,,0.00,Rainwise IP-100,2013-01-23 13:54:00,
2013-01-23 08:59:00,-10.0,-13.0,30.25,NNW,337,7.0,9.0,62,0.00,,,0.00,Rainwise IP-100,2013-01-23 13:59:00,
2013-01-23 09:04:00,-10.0,-13.0,30.26,NNW,337,9.0,14.0,62,0.00,,,0.00,Rainwise IP-100,2013-01-23 14:04:00,
2013-01-23 09:09:00,-10.0,-13.0,30.26,NW,315,7.0,14.0,63,0.00,,,0.00,Rainwise IP-100,2013-01-23 14:09:00,
2013-01-23 09:14:00,-10.0,-13.0,30.26,NNW,337,13.0,16.0,62,0.00,,,0.00,Rainwise IP-100,2013-01-23 14:14:00,
2013-01-23 09:19:00,-10.0,-13.0,30.26,WNW,292,13.0,23.0,61,0.00,,,0.00,Rainwise IP-100,2013-01-23 14:19:00,
2013-01-23 09:24:00,-10.0,-13.0,30.26,NNW,337,9.0,19.0,64,0.00,,,0.00,Rainwise IP-100,2013-01-23 14:24:00,
2013-01-23 09:29:00,-10.0,-13.0,30.26,North,360,13.0,21.0,62,0.00,,,0.00,Rainwise IP-100,2013-01-23 14:29:00,
2013-01-23 09:34:00,-10.0,-13.0,30.25,NW,315,11.0,21.0,63,0.00,,,0.00,Rainwise IP-100,2013-01-23 14:34:00,
2013-01-23 09:39:00,-10.0,-13.0,30.25,NNW,337,15.0,20.0,62,0.00,,,0.00,Rainwise IP-100,2013-01-23 14:39:00,
2013-01-23 09:44:00,-10.0,-13.0,30.25,WNW,292,12.0,18.0,63,0.00,,,0.00,Rainwise IP-100,2013-01-23 14:44:00,
2013-01-23 09:49:00,-10.0,-13.0,30.25,NW,315,12.0,22.0,64,0.00,,,0.00,Rainwise IP-100,2013-01-23 14:49:00,
2013-01-23 09:54:00,-10.0,-13.0,30.26,North,360,12.0,17.0,63,0.00,,,0.00,Rainwise IP-100,2013-01-23 14:54:00,
2013-01-23 09:59:00,-10.0,-13.0,30.26,North,360,13.0,17.0,64,0.00,,,0.00,Rainwise IP-100,2013-01-23 14:59:00,
2013-01-23 10:04:00,-10.0,-13.0,30.26,NW,315,7.0,17.0,64,0.00,,,0.00,Rainwise IP-100,2013-01-23 15:04:00,
2013-01-23 10:09:00,-10.0,-13.0,30.26,NW,315,11.0,18.0,65,0.00,,,0.00,Rainwise IP-100,2013-01-23 15:09:00,
2013-01-23 10:14:00,-10.0,-13.0,30.27,NNW,337,10.0,16.0,63,0.00,,,0.00,Rainwise IP-100,2013-01-23 15:14:00,
2013-01-23 10:19:00,-9.0,-13.0,30.27,NNW,337,11.0,15.0,64,0.00,,,0.00,Rainwise IP-100,2013-01-23 15:19:00,
2013-01-23 10:24:00,-9.0,-13.0,30.26,North,360,13.0,17.0,63,0.00,,,0.00,Rainwise IP-100,2013-01-23 15:24:00,
2013-01-23 10:29:00,-9.0,-13.0,30.26,NW,315,15.0,19.0,64,0.00,,,0.00,Rainwise IP-100,2013-01-23 15:29:00,
2013-01-23 10:34:00,-9.0,-13.0,30.26,NW,315,9.0,19.0,63,0.00,,,0.00,Rainwise IP-100,2013-01-23 15:34:00,
2013-01-23 10:39:00,-8.0,-13.0,30.26,North,360,9.0,16.0,61,0.00,,,0.00,Rainwise IP-100,2013-01-23 15:39:00,
2013-01-23 10:44:00,-8.0,-13.0,30.25,NNW,337,12.0,17.0,60,0.00,,,0.00,Rainwise IP-100,2013-01-23 15:44:00,
2013-01-23 10:49:00,-8.0,-13.0,30.25,NNE,22,5.0,17.0,60,0.00,,,0.00,Rainwise IP-100,2013-01-23 15:49:00,
2013-01-23 10:54:00,-8.0,-13.0,30.25,NNW,337,14.0,14.0,60,0.00,,,0.00,Rainwise IP-100,2013-01-23 15:54:00,
2013-01-23 10:59:00,-8.0,-13.0,30.25,NNW,337,8.0,17.0,58,0.00,,,0.00,Rainwise IP-100,2013-01-23 15:59:00,
2013-01-23 11:04:00,-7.0,-13.0,30.25,North,360,3.0,13.0,58,0.00,,,0.00,Rainwise IP-100,2013-01-23 16:04:00,
2013-01-23 11:09:00,-7.0,-13.0,30.25,North,360,7.0,15.0,59,0.00,,,0.00,Rainwise IP-100,2013-01-23 16:09:00,
2013-01-23 11:14:00,-7.0,-13.0,30.25,North,360,8.0,20.0,57,0.00,,,0.00,Rainwise IP-100,2013-01-23 16:14:00,
2013-01-23 11:19:00,-7.0,-13.0,30.25,North,360,8.0,15.0,56,0.00,,,0.00,Rainwise IP-100,2013-01-23 16:19:00,
2013-01-23 11:24:00,-7.0,-13.0,30.25,NNW,337,15.0,20.0,57,0.00,,,0.00,Rainwise IP-100,2013-01-23 16:24:00,
2013-01-23 11:29:00,-7.0,-13.0,30.25,NW,315,9.0,17.0,58,0.00,,,0.00,Rainwise IP-100,2013-01-23 16:29:00,
2013-01-23 11:34:00,-7.0,-13.0,30.23,NNW,337,12.0,17.0,58,0.00,,,0.00,Rainwise IP-100,2013-01-23 16:34:00,
2013-01-23 11:39:00,-7.0,-13.0,30.23,NNW,337,12.0,15.0,57,0.00,,,0.00,Rainwise IP-100,2013-01-23 16:39:00,
2013-01-23 11:44:00,-7.0,-13.0,30.23,North,360,18.0,19.0,55,0.00,,,0.00,Rainwise IP-100,2013-01-23 16:44:00,
2013-01-23 11:49:00,-7.0,-13.0,30.23,North,360,11.0,22.0,55,0.00,,,0.00,Rainwise IP-100,2013-01-23 16:49:00,
2013-01-23 11:54:00,-7.0,-13.0,30.23,NNW,337,15.0,18.0,54,0.00,,,0.00,Rainwise IP-100,2013-01-23 16:54:00,
2013-01-23 11:59:00,-7.0,-13.0,30.23,NNW,337,16.0,23.0,54,0.00,,,0.00,Rainwise IP-100,2013-01-23 16:59:00,
2013-01-23 12:04:00,-6.0,-13.0,30.22,North,360,7.0,19.0,53,0.00,,,0.00,Rainwise IP-100,2013-01-23 17:04:00,
2013-01-23 12:09:00,-6.0,-13.0,30.22,North,360,12.0,22.0,54,0.00,,,0.00,Rainwise IP-100,2013-01-23 17:09:00,
2013-01-23 12:14:00,-6.0,-13.0,30.21,NNW,337,9.0,19.0,52,0.00,,,0.00,Rainwise IP-100,2013-01-23 17:14:00,
2013-01-23 12:19:00,-6.0,-13.0,30.21,NNW,337,15.0,22.0,52,0.00,,,0.00,Rainwise IP-100,2013-01-23 17:19:00,
2013-01-23 12:24:00,-6.0,-13.0,30.21,NNW,337,17.0,24.0,51,0.00,,,0.00,Rainwise IP-100,2013-01-23 17:24:00,
2013-01-23 12:29:00,-6.0,-13.0,30.21,NNW,337,11.0,22.0,51,0.00,,,0.00,Rainwise IP-100,2013-01-23 17:29:00,
2013-01-23 12:34:00,-6.0,-13.0,30.21,NNW,337,13.0,19.0,52,0.00,,,0.00,Rainwise IP-100,2013-01-23 17:34:00,
2013-01-23 12:39:00,-5.0,-13.0,30.21,NW,315,11.0,17.0,52,0.00,,,0.00,Rainwise IP-100,2013-01-23 17:39:00,
2013-01-23 12:44:00,-5.0,-13.0,30.20,NW,315,7.0,20.0,52,0.00,,,0.00,Rainwise IP-100,2013-01-23 17:44:00,
2013-01-23 12:49:00,-5.0,-13.0,30.20,NNW,337,18.0,18.0,51,0.00,,,0.00,Rainwise IP-100,2013-01-23 17:49:00,
2013-01-23 12:54:00,-4.0,-13.0,30.20,NNW,337,9.0,18.0,53,0.00,,,0.00,Rainwise IP-100,2013-01-23 17:54:00,
2013-01-23 12:59:00,-4.0,-13.0,30.20,NNW,337,9.0,22.0,52,0.00,,,0.00,Rainwise IP-100,2013-01-23 17:59:00,
2013-01-23 13:04:00,-4.0,-13.0,30.20,North,360,13.0,15.0,51,0.00,,,0.00,Rainwise IP-100,2013-01-23 18:04:00,
2013-01-23 13:09:00,-4.0,-13.0,30.20,NNW,337,2.0,15.0,52,0.00,,,0.00,Rainwise IP-100,2013-01-23 18:09:00,
2013-01-23 13:14:00,-4.0,-13.0,30.20,NW,315,11.0,15.0,52,0.00,,,0.00,Rainwise IP-100,2013-01-23 18:14:00,
2013-01-23 13:19:00,-4.0,-13.0,30.20,North,360,7.0,15.0,52,0.00,,,0.00,Rainwise IP-100,2013-01-23 18:19:00,
2013-01-23 13:24:00,-3.0,-13.0,30.19,North,360,15.0,15.0,51,0.00,,,0.00,Rainwise IP-100,2013-01-23 18:24:00,
2013-01-23 13:29:00,-3.0,-13.0,30.19,NNW,337,9.0,17.0,51,0.00,,,0.00,Rainwise IP-100,2013-01-23 18:29:00,
2013-01-23 13:34:00,-3.0,-13.0,30.19,North,360,9.0,17.0,50,0.00,,,0.00,Rainwise IP-100,2013-01-23 18:34:00,
2013-01-23 13:39:00,-3.0,-13.0,30.19,North,360,13.0,14.0,51,0.00,,,0.00,Rainwise IP-100,2013-01-23 18:39:00,
2013-01-23 13:44:00,-3.0,-13.0,30.19,NNE,22,7.0,16.0,52,0.00,,,0.00,Rainwise IP-100,2013-01-23 18:44:00,
2013-01-23 13:49:00,-3.0,-13.0,30.19,North,360,11.0,17.0,52,0.00,,,0.00,Rainwise IP-100,2013-01-23 18:49:00,
2013-01-23 13:54:00,-3.0,-13.0,30.19,North,360,9.0,17.0,51,0.00,,,0.00,Rainwise IP-100,2013-01-23 18:54:00,
2013-01-23 13:59:00,-3.0,-13.0,30.19,NW,315,7.0,16.0,51,0.00,,,0.00,Rainwise IP-100,2013-01-23 18:59:00,
2013-01-23 14:04:00,-3.0,-13.0,30.19,NNW,337,9.0,15.0,51,0.00,,,0.00,Rainwise IP-100,2013-01-23 19:04:00,
2013-01-23 14:09:00,-3.0,-13.0,30.19,NNW,337,12.0,14.0,50,0.00,,,0.00,Rainwise IP-100,2013-01-23 19:09:00,
2013-01-23 14:14:00,-3.0,-13.0,30.20,NNW,337,6.0,16.0,52,0.00,,,0.00,Rainwise IP-100,2013-01-23 19:14:00,
2013-01-23 14:19:00,-3.0,-13.0,30.20,North,360,9.0,14.0,51,0.00,,,0.00,Rainwise IP-100,2013-01-23 19:19:00,
2013-01-23 14:24:00,-3.0,-13.0,30.20,North,360,9.0,15.0,52,0.00,,,0.00,Rainwise IP-100,2013-01-23 19:24:00,
2013-01-23 14:29:00,-2.0,-13.0,30.20,North,360,6.0,13.0,51,0.00,,,0.00,Rainwise IP-100,2013-01-23 19:29:00,
2013-01-23 14:34:00,-3.0,-13.0,30.20,NNW,337,7.0,13.0,51,0.00,,,0.00,Rainwise IP-100,2013-01-23 19:34:00,
2013-01-23 14:39:00,-2.0,-13.0,30.20,North,360,6.0,13.0,51,0.00,,,0.00,Rainwise IP-100,2013-01-23 19:39:00,
2013-01-23 14:44:00,-2.0,-13.0,30.20,NNW,337,11.0,12.0,50,0.00,,,0.00,Rainwise IP-100,2013-01-23 19:44:00,
2013-01-23 14:49:00,-2.0,-13.0,30.20,NNW,337,11.0,12.0,49,0.00,,,0.00,Rainwise IP-100,2013-01-23 19:49:00,
2013-01-23 14:54:00,-2.0,-13.0,30.20,NNW,337,13.0,13.0,50,0.00,,,0.00,Rainwise IP-100,2013-01-23 19:54:00,
2013-01-23 14:59:00,-2.0,-13.0,30.20,NNW,337,7.0,14.0,50,0.00,,,0.00,Rainwise IP-100,2013-01-23 19:59:00,
2013-01-23 15:04:00,-3.0,-13.0,30.21,NNW,337,7.0,15.0,51,0.00,,,0.00,Rainwise IP-100,2013-01-23 20:04:00,
2013-01-23 15:09:00,-2.0,-13.0,30.21,NW,315,11.0,14.0,51,0.00,,,0.00,Rainwise IP-100,2013-01-23 20:09:00,
2013-01-23 15:14:00,-2.0,-13.0,30.21,NNW,337,7.0,12.0,51,0.00,,,0.00,Rainwise IP-100,2013-01-23 20:14:00,
2013-01-23 15:19:00,-2.0,-13.0,30.21,NNW,337,6.0,15.0,50,0.00,,,0.00,Rainwise IP-100,2013-01-23 20:19:00,
2013-01-23 15:24:00,-2.0,-13.0,30.21,NNW,337,9.0,12.0,50,0.00,,,0.00,Rainwise IP-100,2013-01-23 20:24:00,
2013-01-23 15:29:00,-2.0,-13.0,30.21,NNW,337,10.0,12.0,50,0.00,,,0.00,Rainwise IP-100,2013-01-23 20:29:00,
2013-01-23 15:34:00,-2.0,-13.0,30.21,NNW,337,8.0,12.0,49,0.00,,,0.00,Rainwise IP-100,2013-01-23 20:34:00,
2013-01-23 15:39:00,-2.0,-13.0,30.21,NNW,337,11.0,11.0,50,0.00,,,0.00,Rainwise IP-100,2013-01-23 20:39:00,
2013-01-23 15:44:00,-2.0,-13.0,30.21,NW,315,6.0,13.0,50,0.00,,,0.00,Rainwise IP-100,2013-01-23 20:44:00,
2013-01-23 15:49:00,-2.0,-13.0,30.21,NW,315,7.0,11.0,50,0.00,,,0.00,Rainwise IP-100,2013-01-23 20:49:00,
2013-01-23 15:54:00,-3.0,-13.0,30.21,NW,315,6.0,11.0,51,0.00,,,0.00,Rainwise IP-100,2013-01-23 20:54:00,
2013-01-23 15:59:00,-3.0,-13.0,30.21,NNW,337,6.0,11.0,51,0.00,,,0.00,Rainwise IP-100,2013-01-23 20:59:00,
2013-01-23 16:04:00,-2.0,-13.0,30.21,NNW,337,6.0,11.0,51,0.00,,,0.00,Rainwise IP-100,2013-01-23 21:04:00,
2013-01-23 16:09:00,-2.0,-13.0,30.21,NNW,337,6.0,10.0,52,0.00,,,0.00,Rainwise IP-100,2013-01-23 21:09:00,
2013-01-23 16:14:00,-2.0,-13.0,30.21,NNW,337,7.0,9.0,52,0.00,,,0.00,Rainwise IP-100,2013-01-23 21:14:00,
2013-01-23 16:19:00,-3.0,-13.0,30.21,NNW,337,7.0,9.0,53,0.00,,,0.00,Rainwise IP-100,2013-01-23 21:19:00,
2013-01-23 16:24:00,-3.0,-13.0,30.21,NNW,337,5.0,9.0,55,0.00,,,0.00,Rainwise IP-100,2013-01-23 21:24:00,
2013-01-23 16:29:00,-4.0,-13.0,30.21,NNW,337,4.0,9.0,55,0.00,,,0.00,Rainwise IP-100,2013-01-23 21:29:00,
2013-01-23 16:34:00,-5.0,-13.0,30.21,North,360,5.0,9.0,57,0.00,,,0.00,Rainwise IP-100,2013-01-23 21:34:00,
2013-01-23 16:39:00,-5.0,-13.0,30.21,NE,45,6.0,8.0,59,0.00,,,0.00,Rainwise IP-100,2013-01-23 21:39:00,
2013-01-23 16:44:00,-5.0,-13.0,30.21,North,360,2.0,8.0,60,0.00,,,0.00,Rainwise IP-100,2013-01-23 21:44:00,
2013-01-23 16:49:00,-6.0,-13.0,30.21,NNE,22,2.0,7.0,61,0.00,,,0.00,Rainwise IP-100,2013-01-23 21:49:00,
2013-01-23 16:54:00,-6.0,-13.0,30.21,NNE,22,2.0,6.0,61,0.00,,,0.00,Rainwise IP-100,2013-01-23 21:54:00,
2013-01-23 16:59:00,-6.0,-13.0,30.21,NE,45,1.0,6.0,63,0.00,,,0.00,Rainwise IP-100,2013-01-23 21:59:00,
2013-01-23 17:04:00,-6.0,-13.0,30.21,North,360,2.0,6.0,63,0.00,,,0.00,Rainwise IP-100,2013-01-23 22:04:00,
2013-01-23 17:09:00,-7.0,-13.0,30.21,NNE,22,3.0,7.0,64,0.00,,,0.00,Rainwise IP-100,2013-01-23 22:09:00,
2013-01-23 17:14:00,-6.0,-13.0,30.21,NNE,22,5.0,7.0,63,0.00,,,0.00,Rainwise IP-100,2013-01-23 22:14:00,
2013-01-23 17:19:00,-7.0,-13.0,30.21,NE,45,5.0,7.0,64,0.00,,,0.00,Rainwise IP-100,2013-01-23 22:19:00,
2013-01-23 17:24:00,-7.0,-13.0,30.22,NE,45,3.0,7.0,65,0.00,,,0.00,Rainwise IP-100,2013-01-23 22:24:00,
2013-01-23 17:29:00,-7.0,-13.0,30.22,NE,45,5.0,8.0,65,0.00,,,0.00,Rainwise IP-100,2013-01-23 22:29:00,
2013-01-23 17:34:00,-7.0,-13.0,30.22,NE,45,4.0,7.0,65,0.00,,,0.00,Rainwise IP-100,2013-01-23 22:34:00,
2013-01-23 17:39:00,-8.0,-13.0,30.22,NE,45,2.0,5.0,65,0.00,,,0.00,Rainwise IP-100,2013-01-23 22:39:00,
2013-01-23 17:44:00,-8.0,-13.0,30.23,ENE,67,3.0,5.0,68,0.00,,,0.00,Rainwise IP-100,2013-01-23 22:44:00,
2013-01-23 17:49:00,-8.0,-13.0,30.23,ENE,67,4.0,4.0,69,0.00,,,0.00,Rainwise IP-100,2013-01-23 22:49:00,
2013-01-23 17:54:00,-8.0,-13.0,30.23,ENE,67,6.0,6.0,69,0.00,,,0.00,Rainwise IP-100,2013-01-23 22:54:00,
2013-01-23 17:59:00,-8.0,-13.0,30.23,ENE,67,6.0,8.0,68,0.00,,,0.00,Rainwise IP-100,2013-01-23 22:59:00,
2013-01-23 18:04:00,-8.0,-13.0,30.23,East,90,0.0,7.0,68,0.00,,,0.00,Rainwise IP-100,2013-01-23 23:04:00,
2013-01-23 18:09:00,-8.0,-13.0,30.23,NNE,22,1.0,9.0,69,0.00,,,0.00,Rainwise IP-100,2013-01-23 23:09:00,
2013-01-23 18:14:00,-8.0,-13.0,30.23,East,90,5.0,6.0,69,0.00,,,0.00,Rainwise IP-100,2013-01-23 23:14:00,
2013-01-23 18:19:00,-9.0,-13.0,30.23,East,90,2.0,6.0,69,0.00,,,0.00,Rainwise IP-100,2013-01-23 23:19:00,
2013-01-23 18:24:00,-9.0,-13.0,30.23,North,360,5.0,6.0,69,0.00,,,0.00,Rainwise IP-100,2013-01-23 23:24:00,
2013-01-23 18:29:00,-9.0,-13.0,30.23,NNE,22,2.0,6.0,75,0.00,,,0.00,Rainwise IP-100,2013-01-23 23:29:00,
2013-01-23 18:34:00,-8.0,-13.0,30.23,East,90,7.0,10.0,72,0.00,,,0.00,Rainwise IP-100,2013-01-23 23:34:00,
2013-01-23 18:39:00,-9.0,-13.0,30.23,NNW,337,2.0,7.0,70,0.00,,,0.00,Rainwise IP-100,2013-01-23 23:39:00,
2013-01-23 18:44:00,-9.0,-13.0,30.24,NE,45,5.0,7.0,71,0.00,,,0.00,Rainwise IP-100,2013-01-23 23:44:00,
2013-01-23 18:49:00,-8.0,-13.0,30.24,North,360,2.0,7.0,70,0.00,,,0.00,Rainwise IP-100,2013-01-23 23:49:00,
2013-01-23 18:54:00,-8.0,-13.0,30.24,North,360,5.0,7.0,70,0.00,,,0.00,Rainwise IP-100,2013-01-23 23:54:00,
2013-01-23 18:59:00,-9.0,-13.0,30.24,NNW,337,6.0,7.0,69,0.00,,,0.00,Rainwise IP-100,2013-01-23 23:59:00,
2013-01-23 19:04:00,-8.0,-13.0,30.24,NNE,22,2.0,9.0,69,0.00,,,0.00,Rainwise IP-100,2013-01-24 00:04:00,
2013-01-23 19:09:00,-9.0,-13.0,30.24,NW,315,1.0,9.0,69,0.00,,,0.00,Rainwise IP-100,2013-01-24 00:09:00,
2013-01-23 19:14:00,-9.0,-13.0,30.24,North,360,1.0,6.0,70,0.00,,,0.00,Rainwise IP-100,2013-01-24 00:14:00,
2013-01-23 19:19:00,-9.0,-13.0,30.24,North,360,4.0,8.0,70,0.00,,,0.00,Rainwise IP-100,2013-01-24 00:19:00,
2013-01-23 19:24:00,-9.0,-13.0,30.24,NW,315,3.0,7.0,70,0.00,,,0.00,Rainwise IP-100,2013-01-24 00:24:00,
2013-01-23 19:29:00,-9.0,-13.0,30.24,NW,315,5.0,10.0,70,0.00,,,0.00,Rainwise IP-100,2013-01-24 00:29:00,
2013-01-23 19:34:00,-9.0,-13.0,30.24,NNW,337,7.0,10.0,69,0.00,,,0.00,Rainwise IP-100,2013-01-24 00:34:00,
2013-01-23 19:39:00,-9.0,-13.0,30.24,NNW,337,5.0,10.0,69,0.00,,,0.00,Rainwise IP-100,2013-01-24 00:39:00,
2013-01-23 19:44:00,-9.0,-13.0,30.24,North,360,0.0,7.0,70,0.00,,,0.00,Rainwise IP-100,2013-01-24 00:44:00,
2013-01-23 19:49:00,-9.0,-13.0,30.24,ENE,67,4.0,5.0,71,0.00,,,0.00,Rainwise IP-100,2013-01-24 00:49:00,
2013-01-23 19:54:00,-9.0,-13.0,30.24,North,360,5.0,7.0,71,0.00,,,0.00,Rainwise IP-100,2013-01-24 00:54:00,
2013-01-23 19:59:00,-9.0,-13.0,30.24,ESE,112,5.0,8.0,71,0.00,,,0.00,Rainwise IP-100,2013-01-24 00:59:00,
2013-01-23 20:04:00,-9.0,-13.0,30.24,WNW,292,0.0,9.0,71,0.00,,,0.00,Rainwise IP-100,2013-01-24 01:04:00,
2013-01-23 20:09:00,-9.0,-13.0,30.24,WNW,292,1.0,8.0,73,0.00,,,0.00,Rainwise IP-100,2013-01-24 01:09:00,
2013-01-23 20:14:00,-8.0,-13.0,30.23,ESE,112,6.0,6.0,71,0.00,,,0.00,Rainwise IP-100,2013-01-24 01:14:00,
2013-01-23 20:19:00,-9.0,-13.0,30.23,East,90,7.0,12.0,69,0.00,,,0.00,Rainwise IP-100,2013-01-24 01:19:00,
2013-01-23 20:24:00,-8.0,-13.0,30.23,East,90,3.0,11.0,69,0.00,,,0.00,Rainwise IP-100,2013-01-24 01:24:00,
2013-01-23 20:29:00,-8.0,-13.0,30.23,East,90,9.0,13.0,69,0.00,,,0.00,Rainwise IP-100,2013-01-24 01:29:00,
2013-01-23 20:34:00,-9.0,-13.0,30.24,East,90,10.0,10.0,71,0.00,,,0.00,Rainwise IP-100,2013-01-24 01:34:00,
2013-01-23 20:39:00,-9.0,-13.0,30.24,East,90,6.0,10.0,71,0.00,,,0.00,Rainwise IP-100,2013-01-24 01:39:00,
2013-01-23 20:44:00,-10.0,-13.0,30.25,ENE,67,6.0,9.0,72,0.00,,,0.00,Rainwise IP-100,2013-01-24 01:44:00,
2013-01-23 20:49:00,-9.0,-13.0,30.25,ENE,67,6.0,10.0,73,0.00,,,0.00,Rainwise IP-100,2013-01-24 01:49:00,
2013-01-23 20:54:00,-9.0,-13.0,30.24,East,90,6.0,9.0,71,0.00,,,0.00,Rainwise IP-100,2013-01-24 01:54:00,
2013-01-23 20:59:00,-9.0,-13.0,30.24,NE,45,6.0,10.0,70,0.00,,,0.00,Rainwise IP-100,2013-01-24 01:59:00,
2013-01-23 21:04:00,-9.0,-13.0,30.24,ENE,67,4.0,8.0,71,0.00,,,0.00,Rainwise IP-100,2013-01-24 02:04:00,
2013-01-23 21:09:00,-9.0,-13.0,30.24,NNE,22,3.0,10.0,71,0.00,,,0.00,Rainwise IP-100,2013-01-24 02:09:00,
2013-01-23 21:14:00,-8.0,-13.0,30.23,NNE,22,4.0,9.0,69,0.00,,,0.00,Rainwise IP-100,2013-01-24 02:14:00,
2013-01-23 21:19:00,-9.0,-13.0,30.23,East,90,5.0,7.0,70,0.00,,,0.00,Rainwise IP-100,2013-01-24 02:19:00,
2013-01-23 21:24:00,-9.0,-13.0,30.23,NE,45,0.0,7.0,69,0.00,,,0.00,Rainwise IP-100,2013-01-24 02:24:00,
2013-01-23 21:29:00,-9.0,-13.0,30.23,North,360,6.0,6.0,69,0.00,,,0.00,Rainwise IP-100,2013-01-24 02:29:00,
2013-01-23 21:34:00,-9.0,-13.0,30.23,ENE,67,2.0,8.0,69,0.00,,,0.00,Rainwise IP-100,2013-01-24 02:34:00,
2013-01-23 21:39:00,-9.0,-13.0,30.23,NNE,22,4.0,10.0,71,0.00,,,0.00,Rainwise IP-100,2013-01-24 02:39:00,
2013-01-23 21:44:00,-9.0,-13.0,30.24,NE,45,6.0,7.0,70,0.00,,,0.00,Rainwise IP-100,2013-01-24 02:44:00,
2013-01-23 21:49:00,-9.0,-13.0,30.24,North,360,6.0,7.0,69,0.00,,,0.00,Rainwise IP-100,2013-01-24 02:49:00,
2013-01-23 21:54:00,-9.0,-13.0,30.23,NW,315,6.0,9.0,69,0.00,,,0.00,Rainwise IP-100,2013-01-24 02:54:00,
2013-01-23 21:59:00,-9.0,-13.0,30.23,North,360,8.0,12.0,68,0.00,,,0.00,Rainwise IP-100,2013-01-24 02:59:00,
2013-01-23 22:04:00,-9.0,-13.0,30.23,NNW,337,6.0,10.0,68,0.00,,,0.00,Rainwise IP-100,2013-01-24 03:04:00,
2013-01-23 22:09:00,-9.0,-13.0,30.23,North,360,5.0,10.0,69,0.00,,,0.00,Rainwise IP-100,2013-01-24 03:09:00,
2013-01-23 22:14:00,-10.0,-13.0,30.24,North,360,4.0,9.0,72,0.00,,,0.00,Rainwise IP-100,2013-01-24 03:14:00,
2013-01-23 22:19:00,-9.0,-13.0,30.24,NE,45,5.0,9.0,69,0.00,,,0.00,Rainwise IP-100,2013-01-24 03:19:00,
2013-01-23 22:24:00,-10.0,-13.0,30.24,East,90,3.0,7.0,69,0.00,,,0.00,Rainwise IP-100,2013-01-24 03:24:00,
2013-01-23 22:29:00,-10.0,-13.0,30.24,ENE,67,7.0,8.0,70,0.00,,,0.00,Rainwise IP-100,2013-01-24 03:29:00,
2013-01-23 22:34:00,-9.0,-13.0,30.23,East,90,7.0,10.0,69,0.00,,,0.00,Rainwise IP-100,2013-01-24 03:34:00,
2013-01-23 22:39:00,-9.0,-13.0,30.23,ENE,67,7.0,8.0,70,0.00,,,0.00,Rainwise IP-100,2013-01-24 03:39:00,
2013-01-23 22:44:00,-9.0,-13.0,30.23,East,90,8.0,11.0,70,0.00,,,0.00,Rainwise IP-100,2013-01-24 03:44:00,
2013-01-23 22:49:00,-9.0,-13.0,30.23,East,90,7.0,11.0,69,0.00,,,0.00,Rainwise IP-100,2013-01-24 03:49:00,
2013-01-23 22:54:00,-9.0,-13.0,30.23,ENE,67,10.0,10.0,70,0.00,,,0.00,Rainwise IP-100,2013-01-24 03:54:00,
2013-01-23 22:59:00,-9.0,-13.0,30.23,ENE,67,7.0,11.0,69,0.00,,,0.00,Rainwise IP-100,2013-01-24 03:59:00,
2013-01-23 23:04:00,-9.0,-13.0,30.23,ENE,67,9.0,10.0,70,0.00,,,0.00,Rainwise IP-100,2013-01-24 04:04:00,
2013-01-23 23:09:00,-9.0,-13.0,30.23,ENE,67,9.0,12.0,71,0.00,,,0.00,Rainwise IP-100,2013-01-24 04:09:00,
2013-01-23 23:14:00,-9.0,-13.0,30.23,NNE,22,7.0,13.0,71,0.00,,,0.00,Rainwise IP-100,2013-01-24 04:14:00,
2013-01-23 23:19:00,-9.0,-13.0,30.23,ENE,67,7.0,11.0,71,0.00,,,0.00,Rainwise IP-100,2013-01-24 04:19:00,
2013-01-23 23:24:00,-9.0,-13.0,30.24,NNE,22,8.0,11.0,71,0.00,,,0.00,Rainwise IP-100,2013-01-24 04:24:00,
2013-01-23 23:29:00,-9.0,-13.0,30.24,NNE,22,10.0,10.0,73,0.00,,,0.00,Rainwise IP-100,2013-01-24 04:29:00,
2013-01-23 23:34:00,-9.0,-13.0,30.24,North,360,7.0,10.0,73,0.00,,,0.00,Rainwise IP-100,2013-01-24 04:34:00,
2013-01-23 23:39:00,-9.0,-13.0,30.24,NW,315,10.0,12.0,72,0.00,,,0.00,Rainwise IP-100,2013-01-24 04:39:00,
2013-01-23 23:44:00,-9.0,-13.0,30.24,North,360,7.0,10.0,73,0.00,,,0.00,Rainwise IP-100,2013-01-24 04:44:00,
2013-01-23 23:49:00,-9.0,-13.0,30.24,North,360,7.0,9.0,74,0.00,,,0.00,Rainwise IP-100,2013-01-24 04:49:00,
2013-01-23 23:54:00,-10.0,-13.0,30.25,North,360,6.0,9.0,76,0.00,,,0.00,Rainwise IP-100,2013-01-24 04:54:00,
2013-01-23 23:59:00,-10.0,-13.0,30.25,NNW,337,3.0,8.0,74,0.00,,,0.00,Rainwise IP-100,2013-01-24 04:59:00,